createdAt,value
2024-03-22T00:00:47.676Z,79.54
2024-03-22T00:01:47.610Z,79.64
2024-03-22T00:02:47.605Z,79.34
2024-03-22T00:03:47.600Z,79.44
2024-03-22T00:04:47.588Z,79.75
2024-03-22T00:05:47.595Z,79.54
2024-03-22T00:06:47.567Z,79.75
2024-03-22T00:07:47.593Z,79.75
2024-03-22T00:08:47.567Z,79.75
2024-03-22T00:09:47.529Z,79.85
2024-03-22T00:10:47.560Z,79.61
2024-03-22T00:11:47.527Z,79.61
2024-03-22T00:12:47.503Z,79.54
2024-03-22T00:13:47.505Z,79.54
2024-03-22T00:14:47.481Z,79.61
2024-03-22T00:15:48.829Z,79.41
2024-03-22T00:16:47.479Z,79.61
2024-03-22T00:17:47.446Z,79.41
2024-03-22T00:18:47.439Z,79.30
2024-03-22T00:19:47.426Z,79.41
2024-03-22T00:20:47.414Z,79.61
2024-03-22T00:21:47.420Z,79.41
2024-03-22T00:22:47.399Z,79.71
2024-03-22T00:23:47.392Z,79.91
2024-03-22T00:24:47.368Z,79.82
2024-03-22T00:25:47.361Z,79.91
2024-03-22T00:26:47.408Z,79.71
2024-03-22T00:27:47.359Z,80.02
2024-03-22T00:28:47.332Z,79.91
2024-03-22T00:29:47.349Z,79.91
2024-03-22T00:30:47.308Z,80.02
2024-03-22T00:31:47.316Z,80.02
2024-03-22T00:32:47.288Z,80.02
2024-03-22T00:33:47.284Z,79.82
2024-03-22T00:34:47.928Z,79.82
2024-03-22T00:35:47.277Z,80.22
2024-03-22T00:36:47.284Z,79.61
2024-03-22T00:37:47.252Z,79.50
2024-03-22T00:38:47.228Z,79.30
2024-03-22T00:39:47.220Z,79.00
2024-03-22T00:40:47.229Z,78.59
2024-03-22T00:41:47.204Z,78.69
2024-03-22T00:42:47.186Z,78.59
2024-03-22T00:43:47.180Z,78.17
2024-03-22T00:44:47.181Z,78.38
2024-03-22T00:45:47.141Z,78.49
2024-03-22T00:46:47.157Z,78.59
2024-03-22T00:47:47.134Z,78.28
2024-03-22T00:48:47.229Z,77.67
2024-03-22T00:49:47.109Z,77.56
2024-03-22T00:50:47.142Z,77.26
2024-03-22T00:51:47.095Z,76.64
2024-03-22T00:52:47.085Z,76.13
2024-03-22T00:53:47.074Z,75.72
2024-03-22T00:54:47.447Z,75.72
2024-03-22T00:55:47.042Z,75.62
2024-03-22T00:56:47.077Z,75.82
2024-03-22T00:57:47.027Z,75.62
2024-03-22T00:58:47.014Z,75.31
2024-03-22T00:59:47.017Z,74.90
2024-03-22T01:00:47.008Z,74.49
2024-03-22T01:01:46.991Z,74.69
2024-03-22T01:02:46.995Z,74.39
2024-03-22T01:03:46.986Z,74.08
2024-03-22T01:04:46.957Z,74.08
2024-03-22T01:05:46.948Z,73.78
2024-03-22T01:06:46.932Z,73.27
2024-03-22T01:07:48.707Z,72.65
2024-03-22T01:08:46.952Z,71.73
2024-03-22T01:09:46.922Z,71.62
2024-03-22T01:10:46.896Z,71.62
2024-03-22T01:11:46.881Z,71.83
2024-03-22T01:12:46.881Z,71.42
2024-03-22T01:13:46.871Z,70.91
2024-03-22T01:14:46.852Z,70.71
2024-03-22T01:15:46.835Z,70.61
2024-03-22T01:16:46.861Z,70.16
2024-03-22T01:17:46.824Z,69.75
2024-03-22T01:18:46.822Z,69.55
2024-03-22T01:19:46.838Z,69.34
2024-03-22T01:20:46.787Z,69.14
2024-03-22T01:21:46.772Z,68.52
2024-03-22T01:22:46.762Z,68.52
2024-03-22T01:23:46.757Z,68.42
2024-03-22T01:24:46.766Z,68.42
2024-03-22T01:25:46.774Z,68.93
2024-03-22T01:26:46.793Z,69.24
2024-03-22T01:27:46.724Z,68.12
2024-03-22T01:28:46.715Z,67.50
2024-03-22T01:29:46.698Z,67.10
2024-03-22T01:30:46.680Z,67.19
2024-03-22T01:31:46.659Z,67.30
2024-03-22T01:32:46.697Z,67.40
2024-03-22T01:33:46.647Z,67.19
2024-03-22T01:34:46.683Z,66.78
2024-03-22T01:35:46.629Z,66.89
2024-03-22T01:36:46.613Z,65.15
2024-03-22T01:37:46.611Z,64.03
2024-03-22T01:38:46.638Z,63.72
2024-03-22T01:39:46.613Z,63.72
2024-03-22T01:40:46.629Z,62.49
2024-03-22T01:41:46.572Z,61.88
2024-03-22T01:42:46.548Z,61.47
2024-03-22T01:43:46.544Z,61.67
2024-03-22T01:44:46.546Z,61.88
2024-03-22T01:45:46.525Z,61.67
2024-03-22T01:46:46.512Z,61.47
2024-03-22T01:47:46.506Z,61.06
2024-03-22T01:48:46.491Z,60.75
2024-03-22T01:49:46.504Z,60.65
2024-03-22T01:50:46.480Z,60.55
2024-03-22T01:51:46.469Z,60.96
2024-03-22T01:52:46.445Z,60.85
2024-03-22T01:53:46.441Z,61.26
2024-03-22T01:54:46.436Z,61.26
2024-03-22T01:55:46.460Z,60.44
2024-03-22T01:56:46.408Z,60.03
2024-03-22T01:57:46.411Z,60.35
2024-03-22T01:58:46.381Z,60.85
2024-03-22T01:59:46.397Z,60.75
2024-03-22T02:00:46.402Z,60.35
2024-03-22T02:01:46.353Z,60.55
2024-03-22T02:02:46.452Z,60.55
2024-03-22T02:03:46.350Z,60.85
2024-03-22T02:04:46.348Z,60.75
2024-03-22T02:05:46.313Z,60.83
2024-03-22T02:06:46.311Z,61.77
2024-03-22T02:07:46.289Z,61.88
2024-03-22T02:08:46.276Z,60.85
2024-03-22T02:09:46.297Z,60.55
2024-03-22T02:10:46.262Z,60.44
2024-03-22T02:11:46.254Z,60.24
2024-03-22T02:12:46.258Z,59.73
2024-03-22T02:13:46.237Z,58.91
2024-03-22T02:14:46.243Z,58.91
2024-03-22T02:15:46.240Z,58.70
2024-03-22T02:16:46.205Z,58.29
2024-03-22T02:17:46.247Z,58.91
2024-03-22T02:18:46.193Z,59.22
2024-03-22T02:19:46.269Z,58.20
2024-03-22T02:20:46.216Z,57.58
2024-03-22T02:21:46.184Z,57.58
2024-03-22T02:22:46.205Z,57.38
2024-03-22T02:23:46.195Z,57.38
2024-03-22T02:24:46.109Z,57.28
2024-03-22T02:25:46.197Z,57.48
2024-03-22T02:26:46.148Z,57.38
2024-03-22T02:27:46.522Z,57.07
2024-03-22T02:28:46.164Z,57.17
2024-03-22T02:29:46.078Z,56.76
2024-03-22T02:30:46.058Z,56.46
2024-03-22T02:31:46.176Z,56.35
2024-03-22T02:32:46.036Z,56.53
2024-03-22T02:33:46.024Z,57.04
2024-03-22T02:34:55.824Z,57.25
2024-03-22T02:35:46.037Z,57.15
2024-03-22T02:36:45.987Z,57.25
2024-03-22T02:37:46.003Z,57.15
2024-03-22T02:38:45.965Z,57.15
2024-03-22T02:39:45.964Z,56.56
2024-03-22T02:40:45.975Z,55.84
2024-03-22T02:41:45.961Z,55.74
2024-03-22T02:42:45.936Z,55.43
2024-03-22T02:43:45.927Z,55.33
2024-03-22T02:44:45.901Z,55.13
2024-03-22T02:45:45.908Z,54.92
2024-03-22T02:46:45.900Z,55.23
2024-03-22T02:47:45.921Z,54.92
2024-03-22T02:48:45.871Z,54.51
2024-03-22T02:49:45.873Z,54.21
2024-03-22T02:50:45.856Z,53.69
2024-03-22T02:51:45.832Z,53.69
2024-03-22T02:52:45.860Z,53.57
2024-03-22T02:53:45.898Z,54.28
2024-03-22T02:54:45.794Z,53.88
2024-03-22T02:55:45.811Z,54.08
2024-03-22T02:56:45.782Z,54.59
2024-03-22T02:57:45.786Z,54.90
2024-03-22T02:58:45.763Z,54.80
2024-03-22T02:59:45.751Z,54.59
2024-03-22T03:00:45.772Z,55.00
2024-03-22T03:01:45.827Z,55.30
2024-03-22T03:02:45.766Z,55.51
2024-03-22T03:03:45.713Z,55.71
2024-03-22T03:04:45.710Z,55.51
2024-03-22T03:05:45.710Z,56.12
2024-03-22T03:06:45.688Z,55.82
2024-03-22T03:07:45.669Z,55.10
2024-03-22T03:08:45.666Z,54.69
2024-03-22T03:09:45.657Z,54.39
2024-03-22T03:10:45.642Z,54.49
2024-03-22T03:11:45.744Z,55.10
2024-03-22T03:12:45.630Z,54.90
2024-03-22T03:13:45.641Z,54.69
2024-03-22T03:14:45.625Z,54.39
2024-03-22T03:15:45.615Z,54.49
2024-03-22T03:16:45.608Z,54.18
2024-03-22T03:17:45.595Z,54.28
2024-03-22T03:18:45.612Z,53.88
2024-03-22T03:19:45.563Z,53.77
2024-03-22T03:20:45.579Z,54.08
2024-03-22T03:21:45.582Z,54.08
2024-03-22T03:22:45.541Z,53.88
2024-03-22T03:23:45.514Z,53.98
2024-03-22T03:24:45.492Z,54.39
2024-03-22T03:25:45.485Z,53.88
2024-03-22T03:26:45.555Z,53.47
2024-03-22T03:27:45.536Z,53.06
2024-03-22T03:28:45.512Z,52.55
2024-03-22T03:29:45.435Z,52.55
2024-03-22T03:30:45.417Z,52.65
2024-03-22T03:31:45.444Z,52.95
2024-03-22T03:32:45.395Z,53.26
2024-03-22T03:33:45.406Z,53.77
2024-03-22T03:34:45.392Z,54.28
2024-03-22T03:35:45.385Z,54.49
2024-03-22T03:36:45.386Z,54.80
2024-03-22T03:37:45.352Z,54.39
2024-03-22T03:38:45.352Z,54.80
2024-03-22T03:39:45.336Z,54.69
2024-03-22T03:40:45.335Z,54.90
2024-03-22T03:41:45.315Z,54.59
2024-03-22T03:42:45.320Z,54.46
2024-03-22T03:43:45.294Z,54.05
2024-03-22T03:44:45.307Z,54.57
2024-03-22T03:45:45.275Z,54.67
2024-03-22T03:46:45.254Z,54.57
2024-03-22T03:47:45.251Z,54.77
2024-03-22T03:48:45.247Z,55.28
2024-03-22T03:49:45.254Z,55.18
2024-03-22T03:50:45.223Z,55.28
2024-03-22T03:51:45.216Z,55.79
2024-03-22T03:52:45.209Z,56.20
2024-03-22T03:53:45.180Z,56.51
2024-03-22T03:54:45.169Z,57.12
2024-03-22T03:55:45.167Z,57.63
2024-03-22T03:56:45.144Z,58.11
2024-03-22T03:57:45.275Z,58.22
2024-03-22T03:58:45.170Z,58.73
2024-03-22T03:59:45.189Z,59.03
2024-03-22T04:00:45.111Z,59.44
2024-03-22T04:01:45.106Z,60.05
2024-03-22T04:02:45.090Z,59.85
2024-03-22T04:03:45.133Z,59.85
2024-03-22T04:04:45.076Z,59.64
2024-03-22T04:05:45.078Z,59.23
2024-03-22T04:06:45.050Z,58.83
2024-03-22T04:07:45.042Z,59.14
2024-03-22T04:08:45.073Z,59.34
2024-03-22T04:09:45.080Z,59.44
2024-03-22T04:10:45.021Z,58.83
2024-03-22T04:11:45.013Z,59.03
2024-03-22T04:12:44.993Z,58.55
2024-03-22T04:13:44.980Z,58.25
2024-03-22T04:14:44.985Z,58.32
2024-03-22T04:15:44.957Z,58.22
2024-03-22T04:16:44.947Z,57.81
2024-03-22T04:17:44.973Z,58.52
2024-03-22T04:18:44.919Z,58.52
2024-03-22T04:19:45.022Z,58.32
2024-03-22T04:20:44.977Z,58.01
2024-03-22T04:21:44.893Z,58.11
2024-03-22T04:22:44.915Z,58.62
2024-03-22T04:23:44.877Z,58.32
2024-03-22T04:24:44.885Z,58.11
2024-03-22T04:25:44.850Z,57.70
2024-03-22T04:26:44.887Z,57.32
2024-03-22T04:27:44.836Z,57.43
2024-03-22T04:28:44.836Z,57.02
2024-03-22T04:29:44.844Z,56.71
2024-03-22T04:30:44.915Z,56.71
2024-03-22T04:31:44.796Z,56.30
2024-03-22T04:32:44.837Z,56.20
2024-03-22T04:33:44.775Z,55.08
2024-03-22T04:34:44.779Z,55.18
2024-03-22T04:35:44.801Z,55.28
2024-03-22T04:36:44.752Z,55.89
2024-03-22T04:37:44.727Z,56.30
2024-03-22T04:38:44.735Z,56.71
2024-03-22T04:39:44.724Z,55.89
2024-03-22T04:40:44.700Z,56.10
2024-03-22T04:41:44.785Z,56.30
2024-03-22T04:42:44.678Z,55.99
2024-03-22T04:43:44.693Z,55.69
2024-03-22T04:44:44.664Z,55.89
2024-03-22T04:45:44.647Z,55.58
2024-03-22T04:46:44.649Z,55.49
2024-03-22T04:47:44.659Z,54.87
2024-03-22T04:48:44.618Z,54.26
2024-03-22T04:49:44.605Z,54.36
2024-03-22T04:50:44.646Z,54.87
2024-03-22T04:51:44.610Z,54.26
2024-03-22T04:52:44.650Z,54.36
2024-03-22T04:53:46.891Z,54.67
2024-03-22T04:54:44.553Z,55.38
2024-03-22T04:55:44.540Z,54.97
2024-03-22T04:56:44.581Z,54.77
2024-03-22T04:57:44.544Z,54.57
2024-03-22T04:58:44.544Z,54.05
2024-03-22T04:59:44.502Z,54.05
2024-03-22T05:00:44.484Z,54.77
2024-03-22T05:01:44.485Z,54.67
2024-03-22T05:02:44.545Z,54.36
2024-03-22T05:03:44.421Z,54.26
2024-03-22T05:04:44.394Z,54.26
2024-03-22T05:05:44.464Z,53.75
2024-03-22T05:06:44.440Z,54.57
2024-03-22T05:07:44.370Z,53.95
2024-03-22T05:08:44.386Z,53.54
2024-03-22T05:09:44.336Z,53.23
2024-03-22T05:10:44.322Z,53.13
2024-03-22T05:11:44.365Z,53.85
2024-03-22T05:12:44.296Z,53.85
2024-03-22T05:13:44.295Z,54.05
2024-03-22T05:14:44.308Z,53.62
2024-03-22T05:15:44.291Z,54.16
2024-03-22T05:16:44.288Z,54.03
2024-03-22T05:17:44.281Z,54.23
2024-03-22T05:18:44.253Z,54.13
2024-03-22T05:19:44.241Z,54.74
2024-03-22T05:20:44.262Z,54.74
2024-03-22T05:21:44.259Z,54.64
2024-03-22T05:22:44.233Z,54.74
2024-03-22T05:23:44.198Z,55.05
2024-03-22T05:24:44.179Z,55.46
2024-03-22T05:25:44.187Z,55.46
2024-03-22T05:26:44.161Z,56.07
2024-03-22T05:27:44.174Z,56.07
2024-03-22T05:28:44.170Z,56.27
2024-03-22T05:29:44.192Z,56.38
2024-03-22T05:30:44.118Z,56.79
2024-03-22T05:31:44.124Z,56.58
2024-03-22T05:32:44.175Z,56.79
2024-03-22T05:33:44.099Z,56.58
2024-03-22T05:34:44.080Z,56.58
2024-03-22T05:35:44.073Z,56.89
2024-03-22T05:36:44.086Z,56.99
2024-03-22T05:37:44.058Z,57.09
2024-03-22T05:38:44.060Z,57.09
2024-03-22T05:39:44.026Z,57.07
2024-03-22T05:40:44.035Z,57.57
2024-03-22T05:41:44.024Z,57.88
2024-03-22T05:42:44.037Z,58.50
2024-03-22T05:43:44.005Z,58.60
2024-03-22T05:44:44.052Z,58.39
2024-03-22T05:45:43.969Z,59.11
2024-03-22T05:46:43.958Z,59.41
2024-03-22T05:47:44.006Z,59.82
2024-03-22T05:48:43.954Z,60.03
2024-03-22T05:49:44.703Z,60.33
2024-03-22T05:50:43.953Z,60.44
2024-03-22T05:51:43.894Z,60.53
2024-03-22T05:52:43.890Z,60.53
2024-03-22T05:53:43.906Z,61.25
2024-03-22T05:54:43.867Z,61.46
2024-03-22T05:55:43.866Z,61.25
2024-03-22T05:56:43.867Z,61.83
2024-03-22T05:57:43.836Z,61.83
2024-03-22T05:58:43.850Z,61.73
2024-03-22T05:59:43.847Z,61.83
2024-03-22T06:00:43.803Z,62.14
2024-03-22T06:01:43.801Z,62.24
2024-03-22T06:02:43.894Z,62.24
2024-03-22T06:03:43.772Z,62.85
2024-03-22T06:04:46.789Z,63.16
2024-03-22T06:05:43.767Z,63.47
2024-03-22T06:06:43.747Z,63.57
2024-03-22T06:07:43.753Z,63.78
2024-03-22T06:08:43.817Z,64.18
2024-03-22T06:09:43.716Z,64.28
2024-03-22T06:10:43.722Z,65.00
2024-03-22T06:11:43.785Z,65.31
2024-03-22T06:12:43.725Z,65.51
2024-03-22T06:13:43.680Z,65.10
2024-03-22T06:14:43.690Z,65.71
2024-03-22T06:15:43.674Z,65.41
2024-03-22T06:16:43.738Z,65.20
2024-03-22T06:17:43.988Z,65.41
2024-03-22T06:18:43.742Z,65.61
2024-03-22T06:19:44.106Z,66.02
2024-03-22T06:20:44.048Z,66.63
2024-03-22T06:21:44.091Z,66.53
2024-03-22T06:22:43.857Z,66.83
2024-03-22T06:23:43.876Z,67.01
2024-03-22T06:24:43.713Z,67.21
2024-03-22T06:25:43.893Z,68.06
2024-03-22T06:26:46.038Z,67.65
2024-03-22T06:27:45.638Z,67.76
2024-03-22T06:28:43.510Z,67.11
2024-03-22T06:29:43.530Z,67.01
2024-03-22T06:30:43.522Z,67.32
2024-03-22T06:31:43.499Z,67.52
2024-03-22T06:32:43.479Z,67.82
2024-03-22T06:33:43.453Z,67.21
2024-03-22T06:34:43.446Z,67.45
2024-03-22T06:35:43.466Z,67.72
2024-03-22T06:36:43.453Z,67.93
2024-03-22T06:37:43.417Z,68.03
2024-03-22T06:38:43.442Z,68.03
2024-03-22T06:39:43.435Z,67.72
2024-03-22T06:40:43.444Z,67.41
2024-03-22T06:41:43.384Z,68.44
2024-03-22T06:42:43.365Z,68.33
2024-03-22T06:43:43.374Z,68.33
2024-03-22T06:44:43.370Z,69.05
2024-03-22T06:45:43.357Z,69.35
2024-03-22T06:46:43.336Z,68.64
2024-03-22T06:47:43.361Z,69.35
2024-03-22T06:48:43.336Z,69.46
2024-03-22T06:49:43.321Z,70.07
2024-03-22T06:50:43.301Z,69.76
2024-03-22T06:51:43.261Z,69.76
2024-03-22T06:52:43.268Z,69.66
2024-03-22T06:53:43.287Z,70.57
2024-03-22T06:54:43.240Z,70.37
2024-03-22T06:55:43.226Z,70.48
2024-03-22T06:56:43.240Z,70.57
2024-03-22T06:57:43.217Z,70.37
2024-03-22T06:58:43.210Z,70.37
2024-03-22T06:59:43.282Z,71.91
2024-03-22T07:00:43.170Z,71.60
2024-03-22T07:01:43.170Z,71.29
2024-03-22T07:02:43.227Z,71.70
2024-03-22T07:03:43.144Z,71.91
2024-03-22T07:04:43.141Z,71.70
2024-03-22T07:05:43.194Z,72.31
2024-03-22T07:06:43.138Z,72.21
2024-03-22T07:07:43.103Z,72.72
2024-03-22T07:08:43.086Z,72.92
2024-03-22T07:09:43.092Z,73.13
2024-03-22T07:10:43.080Z,72.99
2024-03-22T07:11:43.104Z,74.01
2024-03-22T07:12:43.064Z,74.42
2024-03-22T07:13:43.043Z,75.23
2024-03-22T07:14:43.031Z,75.23
2024-03-22T07:15:43.046Z,75.85
2024-03-22T07:16:43.042Z,76.25
2024-03-22T07:17:43.036Z,76.56
2024-03-22T07:18:43.015Z,77.48
2024-03-22T07:19:43.078Z,77.68
2024-03-22T07:20:42.964Z,78.66
2024-03-22T07:21:43.050Z,79.17
2024-03-22T07:22:43.008Z,79.89
2024-03-22T07:23:43.070Z,80.60
2024-03-22T07:24:42.991Z,81.82
2024-03-22T07:25:42.957Z,82.13
2024-03-22T07:26:43.017Z,83.04
2024-03-22T07:27:42.877Z,82.64
2024-03-22T07:28:42.910Z,83.15
2024-03-22T07:29:42.925Z,83.25
2024-03-22T07:30:42.875Z,84.27
2024-03-22T07:31:43.013Z,83.96
2024-03-22T07:32:42.921Z,85.28
2024-03-22T07:33:42.866Z,84.98
2024-03-22T07:34:42.908Z,84.84
2024-03-22T07:35:42.882Z,84.37
2024-03-22T07:36:42.868Z,85.14
2024-03-22T07:37:42.866Z,84.78
2024-03-22T07:38:42.786Z,84.64
2024-03-22T07:39:42.884Z,85.25
2024-03-22T07:40:42.756Z,86.16
2024-03-22T07:41:42.771Z,86.47
2024-03-22T07:42:42.720Z,87.08
2024-03-22T07:43:43.000Z,88.31
2024-03-22T07:44:42.719Z,88.81
2024-03-22T07:45:42.702Z,88.61
2024-03-22T07:46:42.697Z,88.81
2024-03-22T07:47:42.679Z,90.44
2024-03-22T07:48:42.679Z,90.14
2024-03-22T07:49:42.664Z,91.56
2024-03-22T07:50:42.651Z,92.58
2024-03-22T07:51:42.631Z,92.89
2024-03-22T07:52:42.635Z,92.18
2024-03-22T07:53:42.667Z,92.48
2024-03-22T07:54:42.604Z,92.38
2024-03-22T07:55:42.599Z,93.90
2024-03-22T07:56:42.586Z,94.11
2024-03-22T07:57:42.578Z,94.21
2024-03-22T07:58:43.217Z,95.13
2024-03-22T07:59:42.575Z,94.82
2024-03-22T08:00:42.543Z,94.92
2024-03-22T08:01:42.582Z,95.53
2024-03-22T08:02:42.659Z,96.25
2024-03-22T08:03:42.509Z,96.45
2024-03-22T08:04:42.530Z,96.96
2024-03-22T08:05:42.488Z,96.25
2024-03-22T08:06:42.514Z,96.76
2024-03-22T08:07:42.570Z,96.96
2024-03-22T08:08:42.469Z,98.39
2024-03-22T08:09:42.512Z,98.28
2024-03-22T08:10:42.454Z,97.98
2024-03-22T08:11:42.443Z,98.49
2024-03-22T08:12:42.432Z,98.90
2024-03-22T08:13:42.426Z,99.30
2024-03-22T08:14:42.426Z,98.85
2024-03-22T08:15:42.425Z,99.36
2024-03-22T08:16:42.374Z,99.66
2024-03-22T08:17:42.735Z,99.99
2024-03-22T08:18:42.351Z,99.99
2024-03-22T08:19:42.414Z,99.91
2024-03-22T08:20:42.523Z,99.97
2024-03-22T08:21:42.362Z,99.99
2024-03-22T08:22:42.395Z,99.99
2024-03-22T08:23:43.316Z,99.99
2024-03-22T08:24:42.275Z,99.99
2024-03-22T08:25:42.308Z,99.87
2024-03-22T08:26:42.303Z,99.99
2024-03-22T08:27:55.064Z,99.99
2024-03-22T08:28:46.285Z,99.99
2024-03-22T08:29:42.755Z,99.99
2024-03-22T08:30:42.227Z,99.99
2024-03-22T08:31:42.244Z,99.99
2024-03-22T08:32:42.204Z,99.99
2024-03-22T08:33:42.194Z,99.99
2024-03-22T08:34:42.180Z,99.99
2024-03-22T08:35:42.179Z,99.99
2024-03-22T08:36:42.188Z,99.99
2024-03-22T08:37:42.340Z,99.99
2024-03-22T08:38:42.148Z,99.99
2024-03-22T08:39:42.151Z,99.99
2024-03-22T08:40:42.127Z,99.99
2024-03-22T08:41:42.118Z,99.99
2024-03-22T08:42:42.127Z,99.99
2024-03-22T08:43:42.088Z,99.99
2024-03-22T08:44:42.904Z,99.99
2024-03-22T08:45:42.103Z,99.99
2024-03-22T08:46:42.198Z,99.99
2024-03-22T08:47:42.094Z,99.99
2024-03-22T08:48:42.049Z,99.99
2024-03-22T08:49:42.065Z,99.99
2024-03-22T08:50:42.041Z,99.99
2024-03-22T08:51:42.111Z,99.99
2024-03-22T08:52:42.163Z,99.99
2024-03-22T08:53:41.992Z,99.99
2024-03-22T08:54:42.195Z,99.99
2024-03-22T08:55:41.974Z,99.99
2024-03-22T08:56:41.969Z,99.99
2024-03-22T08:57:49.958Z,99.99
2024-03-22T08:58:41.935Z,99.99
2024-03-22T08:59:41.939Z,99.99
2024-03-22T09:00:41.923Z,99.99
2024-03-22T09:01:41.939Z,99.99
2024-03-22T09:02:41.960Z,99.99
2024-03-22T09:03:41.952Z,99.99
2024-03-22T09:04:41.888Z,99.99
2024-03-22T09:05:47.258Z,99.99
2024-03-22T09:06:41.876Z,99.99
2024-03-22T09:07:41.872Z,99.99
2024-03-22T09:08:41.848Z,99.99
2024-03-22T09:09:41.857Z,99.99
2024-03-22T09:10:41.813Z,99.99
2024-03-22T09:11:41.821Z,99.99
2024-03-22T09:12:41.789Z,99.99
2024-03-22T09:13:41.781Z,99.99
2024-03-22T09:14:41.761Z,99.99
2024-03-22T09:15:41.821Z,99.99
2024-03-22T09:16:41.753Z,99.99
2024-03-22T09:17:41.737Z,99.99
2024-03-22T09:18:41.767Z,99.99
2024-03-22T09:19:41.717Z,99.99
2024-03-22T09:20:41.703Z,99.99
2024-03-22T09:21:41.760Z,99.99
2024-03-22T09:22:41.701Z,99.99
2024-03-22T09:23:41.665Z,99.99
2024-03-22T09:24:41.679Z,99.99
2024-03-22T09:25:43.119Z,99.99
2024-03-22T09:26:41.679Z,99.99
2024-03-22T09:27:41.725Z,99.99
2024-03-22T09:28:41.614Z,99.99
2024-03-22T09:29:41.620Z,99.99
2024-03-22T09:30:42.537Z,99.99
2024-03-22T09:31:43.175Z,99.99
2024-03-22T09:32:41.574Z,99.99
2024-03-22T09:33:41.589Z,99.99
2024-03-22T09:34:41.573Z,99.99
2024-03-22T09:35:41.879Z,99.99
2024-03-22T09:36:41.535Z,99.99
2024-03-22T09:37:41.543Z,99.99
2024-03-22T09:38:41.505Z,99.99
2024-03-22T09:39:41.561Z,99.99
2024-03-22T09:40:41.493Z,99.99
2024-03-22T09:41:44.868Z,99.99
2024-03-22T09:42:41.524Z,99.99
2024-03-22T09:43:41.536Z,99.99
2024-03-22T09:44:41.494Z,99.99
2024-03-22T09:45:41.447Z,99.99
2024-03-22T09:46:41.456Z,99.99
2024-03-22T09:47:41.429Z,99.99
2024-03-22T09:48:41.399Z,99.99
2024-03-22T09:49:41.431Z,99.99
2024-03-22T09:50:41.383Z,99.99
2024-03-22T09:51:41.395Z,99.99
2024-03-22T09:52:42.933Z,99.99
2024-03-22T09:53:44.820Z,99.99
2024-03-22T09:54:41.389Z,99.99
2024-03-22T09:55:41.328Z,99.99
2024-03-22T09:56:41.326Z,99.99
2024-03-22T09:57:41.357Z,99.99
2024-03-22T09:58:41.309Z,99.99
2024-03-22T09:59:42.397Z,99.99
2024-03-22T10:00:41.287Z,99.99
2024-03-22T10:01:41.271Z,99.99
2024-03-22T10:02:41.267Z,99.99
2024-03-22T10:03:41.282Z,99.99
2024-03-22T10:04:41.269Z,99.99
2024-03-22T10:05:43.436Z,99.99
2024-03-22T10:06:41.233Z,99.99
2024-03-22T10:07:41.213Z,99.99
2024-03-22T10:08:41.216Z,99.99
2024-03-22T10:09:41.226Z,99.99
2024-03-22T10:10:41.191Z,99.99
2024-03-22T10:11:43.289Z,99.99
2024-03-22T10:12:41.202Z,99.99
2024-03-22T10:13:41.167Z,99.99
2024-03-22T10:14:41.131Z,99.99
2024-03-22T10:15:41.240Z,99.99
2024-03-22T10:16:41.119Z,99.99
2024-03-22T10:17:41.118Z,99.99
2024-03-22T10:18:41.153Z,99.99
2024-03-22T10:19:41.159Z,99.99
2024-03-22T10:20:41.152Z,99.99
2024-03-22T10:21:41.115Z,99.99
2024-03-22T10:22:41.051Z,99.99
2024-03-22T10:23:41.059Z,99.99
2024-03-22T10:24:41.033Z,99.99
2024-03-22T10:25:41.143Z,99.99
2024-03-22T10:26:41.011Z,99.99
2024-03-22T10:27:41.142Z,99.99
2024-03-22T10:28:41.097Z,99.99
2024-03-22T10:29:42.934Z,99.99
2024-03-22T10:30:41.100Z,99.99
2024-03-22T10:31:40.979Z,99.99
2024-03-22T10:32:40.981Z,99.99
2024-03-22T10:33:40.986Z,99.99
2024-03-22T10:34:40.964Z,99.99
2024-03-22T10:35:41.009Z,99.99
2024-03-22T10:36:40.950Z,99.99
2024-03-22T10:37:43.201Z,99.99
2024-03-22T10:38:40.918Z,99.99
2024-03-22T10:39:40.906Z,99.99
2024-03-22T10:40:41.076Z,99.91
2024-03-22T10:41:40.897Z,99.91
2024-03-22T10:42:40.885Z,99.99
2024-03-22T10:43:41.931Z,99.99
2024-03-22T10:44:40.827Z,99.29
2024-03-22T10:45:40.894Z,99.80
2024-03-22T10:46:40.856Z,99.60
2024-03-22T10:47:40.876Z,99.54
2024-03-22T10:48:40.813Z,98.83
2024-03-22T10:49:42.655Z,98.32
2024-03-22T10:50:40.787Z,98.63
2024-03-22T10:51:40.771Z,98.52
2024-03-22T10:52:40.818Z,98.43
2024-03-22T10:53:40.845Z,97.81
2024-03-22T10:54:41.311Z,97.50
2024-03-22T10:55:40.789Z,97.40
2024-03-22T10:56:40.770Z,97.40
2024-03-22T10:57:40.783Z,96.89
2024-03-22T10:58:40.726Z,97.20
2024-03-22T10:59:40.658Z,97.40
2024-03-22T11:00:41.894Z,96.89
2024-03-22T11:01:40.673Z,97.20
2024-03-22T11:02:40.628Z,97.00
2024-03-22T11:03:40.652Z,96.84
2024-03-22T11:04:40.635Z,96.54
2024-03-22T11:05:40.668Z,96.75
2024-03-22T11:06:40.626Z,97.97
2024-03-22T11:07:40.583Z,98.18
2024-03-22T11:08:40.573Z,98.11
2024-03-22T11:09:40.569Z,98.32
2024-03-22T11:10:40.560Z,98.32
2024-03-22T11:11:40.555Z,98.02
2024-03-22T11:12:40.537Z,98.43
2024-03-22T11:13:40.509Z,97.81
2024-03-22T11:14:40.503Z,97.71
2024-03-22T11:15:40.492Z,97.20
2024-03-22T11:16:40.604Z,97.20
2024-03-22T11:17:41.391Z,98.02
2024-03-22T11:18:40.478Z,98.11
2024-03-22T11:19:40.484Z,98.02
2024-03-22T11:20:42.340Z,98.02
2024-03-22T11:21:41.658Z,97.81
2024-03-22T11:22:40.474Z,98.02
2024-03-22T11:23:40.665Z,97.71
2024-03-22T11:24:40.883Z,97.71
2024-03-22T11:25:41.406Z,97.96
2024-03-22T11:26:41.902Z,98.11
2024-03-22T11:27:40.555Z,97.75
2024-03-22T11:28:40.423Z,97.65
2024-03-22T11:29:40.338Z,97.45
2024-03-22T11:30:40.378Z,97.45
2024-03-22T11:31:40.335Z,97.65
2024-03-22T11:32:40.350Z,97.34
2024-03-22T11:33:40.318Z,96.94
2024-03-22T11:34:40.910Z,96.94
2024-03-22T11:35:40.283Z,97.45
2024-03-22T11:36:40.441Z,96.94
2024-03-22T11:37:40.270Z,96.84
2024-03-22T11:38:40.285Z,97.24
2024-03-22T11:39:40.245Z,96.84
2024-03-22T11:40:40.838Z,96.94
2024-03-22T11:41:40.301Z,96.63
2024-03-22T11:42:40.248Z,96.73
2024-03-22T11:43:40.251Z,96.63
2024-03-22T11:44:40.185Z,95.92
2024-03-22T11:45:40.199Z,96.22
2024-03-22T11:46:40.167Z,95.92
2024-03-22T11:47:40.199Z,95.51
2024-03-22T11:48:40.151Z,95.25
2024-03-22T11:49:40.135Z,94.53
2024-03-22T11:50:40.125Z,94.33
2024-03-22T11:51:40.132Z,93.82
2024-03-22T11:52:40.097Z,93.21
2024-03-22T11:53:40.116Z,92.90
2024-03-22T11:54:40.081Z,92.80
2024-03-22T11:55:40.073Z,92.39
2024-03-22T11:56:40.414Z,91.98
2024-03-22T11:57:40.076Z,91.47
2024-03-22T11:58:40.036Z,91.37
2024-03-22T11:59:43.565Z,91.57
2024-03-22T12:01:40.035Z,90.45
2024-03-22T12:02:40.013Z,90.25
2024-03-22T12:03:40.018Z,89.73
2024-03-22T12:04:39.989Z,89.84
2024-03-22T12:05:39.991Z,89.12
2024-03-22T12:06:39.964Z,88.71
2024-03-22T12:07:39.948Z,87.96
2024-03-22T12:08:39.954Z,87.65
2024-03-22T12:09:39.958Z,86.36
2024-03-22T12:10:39.953Z,84.94
2024-03-22T12:11:39.900Z,84.74
2024-03-22T12:12:39.888Z,83.51
2024-03-22T12:13:39.908Z,82.49
2024-03-22T12:14:39.874Z,81.37
2024-03-22T12:15:39.871Z,80.24
2024-03-22T12:16:39.868Z,79.83
2024-03-22T12:17:39.862Z,78.30
2024-03-22T12:18:39.844Z,77.59
2024-03-22T12:19:39.876Z,76.36
2024-03-22T12:20:39.841Z,76.56
2024-03-22T12:21:39.802Z,75.13
2024-03-22T12:22:39.777Z,74.52
2024-03-22T12:23:39.794Z,75.65
2024-03-22T12:24:39.803Z,73.71
2024-03-22T12:25:39.759Z,73.10
2024-03-22T12:26:39.824Z,73.10
2024-03-22T12:27:40.043Z,72.28
2024-03-22T12:28:39.838Z,73.77
2024-03-22T12:29:39.847Z,73.71
2024-03-22T12:30:39.784Z,74.83
2024-03-22T12:31:39.722Z,74.42
2024-03-22T12:32:39.738Z,73.03
2024-03-22T12:33:39.720Z,71.59
2024-03-22T12:34:39.708Z,71.29
2024-03-22T12:35:39.708Z,69.35
2024-03-22T12:36:39.642Z,69.73
2024-03-22T12:37:39.651Z,70.54
2024-03-22T12:38:39.654Z,69.32
2024-03-22T12:39:39.622Z,67.71
2024-03-22T12:40:39.931Z,67.21
2024-03-22T12:41:39.607Z,66.59
2024-03-22T12:42:39.566Z,64.96
2024-03-22T12:43:50.704Z,63.35
2024-03-22T12:44:39.583Z,61.31
2024-03-22T12:45:39.570Z,60.69
2024-03-22T12:46:39.543Z,59.16
2024-03-22T12:47:39.526Z,55.89
2024-03-22T12:48:39.508Z,53.95
2024-03-22T12:49:39.555Z,53.23
2024-03-22T12:50:39.496Z,52.22
2024-03-22T12:51:39.548Z,48.74
2024-03-22T12:52:39.490Z,47.60
2024-03-22T12:53:39.531Z,46.80